Time;durP1;ratioP1;P1;durP2;ratioP2;P2;SDS_P1;SDS_P2;PMS_P1;PMS_P2;Temp;Humidity;BMP_temperature;BMP_pressure;BME280_temperature;BME280_humidity;BME280_pressure;Samples;Min_cycle;Max_cycle;Signal;HPM_P1;HPM_P2
2023/02/14 00:02:16;;;;;;;25.73;11.20;;;8.40;96.10;;;;;;5031451;28;20033;-67
2023/02/14 00:04:44;;;;;;;23.30;10.57;;;8.40;96.00;;;;;;5030776;28;20073;-67
2023/02/14 00:07:10;;;;;;;23.98;11.30;;;8.40;96.00;;;;;;5035883;28;20308;-67
2023/02/14 00:09:36;;;;;;;22.95;11.13;;;8.40;96.20;;;;;;5037861;28;20867;-67
2023/02/14 00:12:03;;;;;;;25.35;11.60;;;8.40;96.20;;;;;;5033449;28;20041;-67
2023/02/14 00:17:13;;;;;;;22.98;10.57;;;8.40;95.90;;;;;;5029636;28;20369;-67
2023/02/14 00:19:39;;;;;;;24.02;10.60;;;8.40;96.00;;;;;;5033269;28;20110;-67
2023/02/14 00:22:04;;;;;;;24.50;10.55;;;8.40;96.10;;;;;;5030194;28;20020;-67
2023/02/14 00:24:31;;;;;;;23.00;10.75;;;8.40;96.20;;;;;;5029695;28;20037;-67
2023/02/14 00:26:57;;;;;;;25.20;11.50;;;8.40;96.20;;;;;;5032520;28;20052;-68
2023/02/14 00:29:28;;;;;;;24.88;11.18;;;8.40;96.00;;;;;;5032022;28;20036;-67
2023/02/14 00:31:54;;;;;;;25.50;11.25;;;8.40;96.00;;;;;;5034858;28;20021;-67
2023/02/14 00:34:22;;;;;;;22.55;10.50;;;8.40;96.20;;;;;;5035715;28;20032;-67
2023/02/14 00:36:48;;;;;;;22.50;10.80;;;8.40;96.10;;;;;;5012052;28;20492;-67
2023/02/14 00:39:16;;;;;;;22.73;9.93;;;8.40;96.20;;;;;;5031728;28;20078;-68
2023/02/14 00:41:42;;;;;;;20.35;9.05;;;8.40;96.30;;;;;;5032011;28;20075;-67
2023/02/14 00:44:09;;;;;;;22.92;10.80;;;8.40;96.30;;;;;;5016528;28;20056;-67
2023/02/14 00:46:35;;;;;;;23.85;10.52;;;8.40;96.30;;;;;;5027975;28;20029;-67
2023/02/14 00:49:01;;;;;;;25.90;11.98;;;8.40;96.30;;;;;;5034767;28;20025;-67
2023/02/14 00:51:27;;;;;;;21.13;10.40;;;8.40;96.40;;;;;;5013859;28;20496;-67
2023/02/14 00:53:53;;;;;;;20.63;10.27;;;8.30;96.30;;;;;;5031147;28;20314;-65
2023/02/14 00:56:19;;;;;;;28.95;11.38;;;8.30;96.30;;;;;;5035134;28;20111;-65
2023/02/14 00:58:46;;;;;;;25.52;11.30;;;8.40;96.20;;;;;;5014040;28;20079;-65
2023/02/14 01:01:12;;;;;;;21.17;10.60;;;8.30;96.10;;;;;;5032098;28;20852;-64
2023/02/14 01:03:38;;;;;;;24.35;10.43;;;8.30;96.10;;;;;;5010782;28;20060;-65
2023/02/14 01:06:05;;;;;;;25.90;11.15;;;8.30;95.90;;;;;;5029708;28;20143;-65
2023/02/14 01:08:31;;;;;;;21.80;10.60;;;8.30;95.90;;;;;;5011277;28;20036;-65
2023/02/14 01:10:57;;;;;;;26.45;12.10;;;8.40;95.90;;;;;;5013949;28;20569;-65
2023/02/14 01:13:25;;;;;;;24.40;10.27;;;8.40;95.90;;;;;;5034077;28;20024;-65
2023/02/14 01:15:51;;;;;;;28.58;12.60;;;8.30;95.80;;;;;;5029013;28;20025;-65
2023/02/14 01:18:18;;;;;;;30.25;11.90;;;8.30;95.70;;;;;;5029597;28;20035;-65
2023/02/14 01:20:44;;;;;;;28.25;12.13;;;8.30;95.80;;;;;;5014471;28;20029;-65
2023/02/14 01:23:10;;;;;;;23.52;10.95;;;8.30;95.70;;;;;;5030392;28;20040;-65
2023/02/14 01:25:37;;;;;;;21.85;9.35;;;8.30;95.70;;;;;;5027717;28;20437;-64
2023/02/14 01:28:04;;;;;;;25.70;10.73;;;8.20;95.80;;;;;;5027898;28;20234;-65
2023/02/14 01:30:29;;;;;;;23.52;10.65;;;8.20;95.80;;;;;;5030763;28;20063;-65
2023/02/14 01:32:55;;;;;;;22.13;9.32;;;8.20;95.90;;;;;;5012032;28;20455;-65
2023/02/14 01:35:21;;;;;;;22.00;9.45;;;8.20;96.00;;;;;;5036593;28;20430;-65
2023/02/14 01:37:47;;;;;;;24.83;12.27;;;8.20;96.10;;;;;;5013938;28;20025;-65
2023/02/14 01:40:13;;;;;;;23.35;10.77;;;8.20;96.00;;;;;;5031257;28;20120;-65
2023/02/14 01:42:42;;;;;;;22.65;10.70;;;8.20;96.00;;;;;;5013623;28;20447;-65
2023/02/14 01:45:18;;;;;;;26.05;11.35;;;8.20;96.20;;;;;;5030185;28;20071;-65
2023/02/14 01:47:50;;;;;;;28.38;9.98;;;8.10;96.40;;;;;;5029510;28;20699;-65
2023/02/14 01:50:23;;;;;;;24.65;10.40;;;8.10;96.40;;;;;;5026489;28;20123;-65
2023/02/14 01:53:01;;;;;;;23.52;9.73;;;8.20;96.40;;;;;;5030414;28;20325;-65
2023/02/14 01:55:31;;;;;;;25.42;12.23;;;8.10;96.50;;;;;;5017681;28;20124;-64
2023/02/14 01:58:20;;;;;;;23.83;11.32;;;8.20;96.50;;;;;;5032905;28;20025;-65
2023/02/14 02:00:56;;;;;;;23.00;11.45;;;8.20;96.40;;;;;;5015202;28;20033;-65
2023/02/14 02:03:40;;;;;;;31.33;13.52;;;8.20;96.30;;;;;;5030215;28;20036;-65
2023/02/14 02:06:22;;;;;;;23.52;11.05;;;8.20;96.20;;;;;;5031422;28;20029;-65
2023/02/14 02:09:13;;;;;;;23.67;10.93;;;8.20;96.10;;;;;;5027056;28;20538;-64
2023/02/14 02:11:41;;;;;;;23.63;10.45;;;8.10;96.20;;;;;;5016820;28;20041;-64
2023/02/14 02:14:15;;;;;;;26.40;10.77;;;8.10;96.10;;;;;;5032267;28;20029;-65
2023/02/14 02:17:06;;;;;;;27.65;12.13;;;8.10;96.10;;;;;;5032607;28;20021;-65
2023/02/14 02:20:16;;;;;;;26.75;11.55;;;8.10;96.20;;;;;;5029058;28;20131;-65
2023/02/14 02:23:20;;;;;;;25.23;10.60;;;8.20;96.00;;;;;;5015513;28;20059;-65
2023/02/14 02:25:58;;;;;;;25.30;10.15;;;8.10;96.00;;;;;;5001372;28;20531;-65
2023/02/14 02:28:54;;;;;;;27.85;13.02;;;8.10;96.10;;;;;;5016676;28;20017;-64
2023/02/14 02:31:20;;;;;;;27.95;12.43;;;8.10;96.00;;;;;;5033142;28;20601;-65
2023/02/14 02:34:10;;;;;;;20.52;9.85;;;8.10;96.10;;;;;;5032317;28;20034;-64
2023/02/14 02:37:02;;;;;;;23.73;10.45;;;8.00;96.20;;;;;;5020999;28;20037;-65
2023/02/14 02:39:49;;;;;;;27.50;10.77;;;8.00;96.20;;;;;;5021983;28;20029;-66
2023/02/14 02:42:34;;;;;;;24.42;10.68;;;8.00;96.20;;;;;;5035202;28;20105;-65
2023/02/14 02:45:20;;;;;;;27.73;11.80;;;8.10;95.90;;;;;;5034469;28;20024;-65
2023/02/14 02:47:51;;;;;;;26.63;11.02;;;8.10;95.90;;;;;;4980362;28;20143;-65
2023/02/14 02:53:48;;;;;;;22.20;10.65;;;8.00;96.20;;;;;;5012973;28;20026;-65
2023/02/14 02:56:44;;;;;;;28.08;11.23;;;8.00;96.40;;;;;;4986700;28;20037;-65
2023/02/14 02:59:33;;;;;;;28.65;12.55;;;8.00;96.40;;;;;;5035015;28;20043;-65
2023/02/14 03:02:16;;;;;;;27.35;11.52;;;8.10;96.10;;;;;;5038321;28;20029;-65
2023/02/14 03:04:53;;;;;;;29.50;11.90;;;8.10;95.80;;;;;;5020167;28;20515;-65
2023/02/14 03:07:39;;;;;;;22.90;10.82;;;8.00;95.60;;;;;;5017118;28;20310;-65
2023/02/14 03:10:06;;;;;;;20.50;9.23;;;8.00;95.70;;;;;;5016379;28;20025;-65
2023/02/14 03:12:32;;;;;;;26.90;11.32;;;8.00;95.90;;;;;;4999618;28;20362;-67
2023/02/14 03:15:21;;;;;;;28.05;11.73;;;8.00;96.00;;;;;;5010183;28;20021;-67
2023/02/14 03:21:08;;;;;;;27.52;11.50;;;8.00;95.70;;;;;;5019965;28;20079;-67
2023/02/14 03:23:44;;;;;;;23.65;9.50;;;8.00;95.60;;;;;;5018756;28;20191;-67
2023/02/14 03:26:41;;;;;;;25.05;10.52;;;8.00;95.70;;;;;;5035628;28;20068;-65
2023/02/14 03:29:14;;;;;;;22.30;9.82;;;8.00;95.90;;;;;;5004956;28;20132;-65
2023/02/14 03:31:58;;;;;;;20.30;9.35;;;8.00;96.10;;;;;;5015960;28;20044;-65
2023/02/14 03:34:42;;;;;;;27.35;11.68;;;8.00;96.20;;;;;;5015717;28;20036;-65
2023/02/14 03:37:14;;;;;;;27.00;11.25;;;8.00;96.40;;;;;;5020847;28;20056;-65
2023/02/14 03:39:46;;;;;;;22.58;9.73;;;7.90;96.30;;;;;;5030066;28;20029;-65
2023/02/14 03:42:29;;;;;;;27.15;10.75;;;8.00;96.60;;;;;;5018872;28;20574;-65
2023/02/14 03:44:57;;;;;;;25.60;11.32;;;7.90;96.50;;;;;;5018190;28;20036;-65
2023/02/14 03:47:28;;;;;;;21.95;11.23;;;7.90;96.50;;;;;;5032210;28;20043;-64
2023/02/14 03:50:07;;;;;;;22.73;11.05;;;7.90;96.50;;;;;;5034276;28;20068;-64
2023/02/14 03:52:36;;;;;;;22.65;9.80;;;7.90;96.50;;;;;;5031369;28;20052;-65
2023/02/14 03:55:05;;;;;;;20.60;9.82;;;7.90;96.30;;;;;;5030876;28;20134;-65
2023/02/14 03:57:48;;;;;;;24.58;9.82;;;7.90;96.40;;;;;;5031715;28;20080;-65
2023/02/14 04:00:17;;;;;;;20.55;8.70;;;7.90;96.60;;;;;;5032193;28;20809;-65
2023/02/14 04:02:52;;;;;;;20.25;9.20;;;7.90;96.40;;;;;;5028323;28;20881;-65
2023/02/14 04:05:24;;;;;;;21.25;10.15;;;7.90;96.50;;;;;;5036019;28;20272;-65
2023/02/14 04:07:53;;;;;;;25.42;11.20;;;7.90;96.60;;;;;;5017488;28;20148;-64
2023/02/14 04:10:19;;;;;;;20.27;9.43;;;7.90;96.40;;;;;;5032404;28;20029;-65
2023/02/14 04:12:45;;;;;;;23.10;10.68;;;7.90;96.30;;;;;;5031674;28;20021;-64
2023/02/14 04:15:12;;;;;;;23.50;10.70;;;7.90;96.20;;;;;;5033504;28;20038;-65
2023/02/14 04:20:22;;;;;;;27.95;11.43;;;8.00;96.00;;;;;;5029205;28;20386;-65
2023/02/14 04:22:50;;;;;;;25.10;11.40;;;8.00;95.70;;;;;;5035880;28;20095;-68
2023/02/14 04:25:16;;;;;;;25.42;11.98;;;7.90;95.60;;;;;;5034933;28;20065;-65
2023/02/14 04:27:42;;;;;;;28.73;11.48;;;7.90;95.70;;;;;;5031764;28;20035;-65
2023/02/14 04:30:09;;;;;;;23.30;10.25;;;7.90;95.90;;;;;;5036892;28;20844;-63
2023/02/14 04:32:34;;;;;;;26.40;10.52;;;7.90;96.00;;;;;;5036286;28;20116;-65
2023/02/14 04:35:00;;;;;;;24.30;10.88;;;7.90;96.30;;;;;;5033329;28;20033;-65
2023/02/14 04:37:26;;;;;;;29.33;12.48;;;7.80;96.20;;;;;;5033758;28;20025;-65
2023/02/14 04:39:52;;;;;;;23.85;11.57;;;7.90;96.20;;;;;;5030367;28;20083;-64
2023/02/14 04:42:17;;;;;;;22.48;10.70;;;7.80;96.10;;;;;;5032286;28;20035;-65
2023/02/14 04:44:43;;;;;;;23.90;10.55;;;7.90;96.30;;;;;;5014625;28;20035;-64
2023/02/14 04:47:09;;;;;;;27.65;11.52;;;7.90;96.40;;;;;;5034576;28;20128;-66
2023/02/14 04:49:35;;;;;;;28.52;11.70;;;7.90;96.30;;;;;;5029235;28;20044;-65
2023/02/14 04:52:01;;;;;;;26.10;11.25;;;7.90;96.10;;;;;;5033187;28;20026;-65
2023/02/14 04:54:27;;;;;;;26.63;12.07;;;7.90;96.10;;;;;;5034031;28;20032;-65
2023/02/14 04:56:53;;;;;;;25.42;10.93;;;7.90;96.30;;;;;;5029590;28;20022;-66
2023/02/14 04:59:19;;;;;;;26.98;11.77;;;7.90;95.90;;;;;;5029820;28;20029;-65
2023/02/14 05:01:45;;;;;;;24.63;10.38;;;7.90;96.00;;;;;;5029002;28;20033;-64
2023/02/14 05:04:11;;;;;;;25.20;11.30;;;7.90;96.00;;;;;;5030046;28;20033;-64
2023/02/14 05:06:36;;;;;;;26.17;11.48;;;7.90;95.80;;;;;;5034474;28;20037;-64
2023/02/14 05:09:02;;;;;;;26.48;11.75;;;7.90;95.50;;;;;;5034189;28;20187;-64
2023/02/14 05:11:29;;;;;;;29.42;11.48;;;7.90;95.40;;;;;;5032141;28;20035;-64
2023/02/14 05:13:55;;;;;;;31.48;12.88;;;7.90;95.50;;;;;;5029893;28;20032;-64
2023/02/14 05:16:21;;;;;;;26.10;12.07;;;7.90;95.50;;;;;;5032435;28;20500;-64
2023/02/14 05:18:46;;;;;;;35.80;14.00;;;7.80;95.60;;;;;;5030810;28;20078;-64
2023/02/14 05:21:12;;;;;;;30.15;11.85;;;7.80;95.80;;;;;;5031722;28;20037;-64
2023/02/14 05:23:38;;;;;;;28.55;12.23;;;7.80;95.80;;;;;;5025156;28;20032;-65
2023/02/14 05:26:04;;;;;;;27.25;11.75;;;7.80;95.60;;;;;;5030960;28;20722;-64
2023/02/14 05:28:31;;;;;;;26.80;12.23;;;7.80;95.60;;;;;;5029979;28;20045;-64
2023/02/14 05:30:57;;;;;;;31.83;12.05;;;7.80;95.30;;;;;;5032630;28;20033;-65
2023/02/14 05:33:24;;;;;;;31.23;13.13;;;7.80;95.20;;;;;;5032157;28;20040;-65
2023/02/14 05:35:50;;;;;;;27.48;12.57;;;7.90;95.20;;;;;;5028091;28;20037;-65
2023/02/14 05:38:16;;;;;;;27.33;12.45;;;7.90;95.20;;;;;;5027427;28;20021;-65
2023/02/14 05:40:42;;;;;;;28.45;13.55;;;7.90;95.30;;;;;;5031707;28;20636;-64
2023/02/14 05:43:08;;;;;;;29.08;12.30;;;7.90;95.30;;;;;;5030513;28;20037;-64
2023/02/14 05:45:33;;;;;;;30.83;13.70;;;7.90;95.30;;;;;;5034356;28;20036;-65
2023/02/14 05:47:59;;;;;;;28.60;12.73;;;7.90;95.40;;;;;;5029292;28;20040;-65
2023/02/14 05:50:25;;;;;;;30.33;12.73;;;7.90;95.50;;;;;;5031575;28;20056;-65
2023/02/14 05:52:53;;;;;;;28.02;12.52;;;7.80;95.60;;;;;;5033633;28;20029;-65
2023/02/14 05:55:19;;;;;;;30.98;14.10;;;7.80;95.60;;;;;;5037888;28;20143;-65
2023/02/14 05:57:45;;;;;;;29.13;12.65;;;7.80;95.60;;;;;;5031353;28;20857;-65
2023/02/14 06:00:12;;;;;;;30.40;13.55;;;7.80;95.50;;;;;;5032526;28;20146;-65
2023/02/14 06:02:40;;;;;;;33.13;13.75;;;7.80;95.50;;;;;;5031172;28;20029;-65
2023/02/14 06:05:06;;;;;;;28.85;13.02;;;7.80;95.70;;;;;;5035319;28;20040;-65
2023/02/14 06:07:32;;;;;;;31.83;12.73;;;7.80;95.70;;;;;;5036417;28;20040;-65
2023/02/14 06:09:58;;;;;;;28.40;12.02;;;7.80;96.00;;;;;;5037579;28;20048;-64
2023/02/14 06:12:24;;;;;;;28.08;12.68;;;7.70;96.00;;;;;;5038628;28;20027;-64
2023/02/14 06:14:49;;;;;;;31.13;12.65;;;7.70;96.10;;;;;;5037671;28;20404;-63
2023/02/14 06:17:15;;;;;;;29.85;11.98;;;7.70;96.20;;;;;;5039287;28;20808;-64
2023/02/14 06:19:42;;;;;;;30.67;11.68;;;7.80;96.10;;;;;;5039216;28;20695;-64
2023/02/14 06:22:09;;;;;;;27.73;10.90;;;7.70;96.10;;;;;;5036252;28;20482;-64
2023/02/14 06:24:35;;;;;;;26.27;11.77;;;7.80;96.10;;;;;;5038176;28;20099;-63
2023/02/14 06:27:01;;;;;;;29.42;12.63;;;7.80;96.10;;;;;;5030739;28;20828;-64
2023/02/14 06:29:27;;;;;;;26.05;12.30;;;7.80;96.20;;;;;;5035841;28;20040;-64
2023/02/14 06:31:53;;;;;;;26.75;11.10;;;7.70;96.30;;;;;;5023040;28;20079;-64
2023/02/14 06:34:18;;;;;;;26.50;12.82;;;7.70;96.50;;;;;;5035596;28;20035;-64
2023/02/14 06:36:44;;;;;;;27.70;11.98;;;7.70;96.60;;;;;;5028969;28;20033;-64
2023/02/14 06:39:10;;;;;;;27.88;12.27;;;7.70;96.60;;;;;;5033620;28;20137;-64
2023/02/14 06:41:36;;;;;;;30.05;12.65;;;7.70;96.60;;;;;;5038599;28;20028;-63
2023/02/14 06:44:01;;;;;;;28.92;12.15;;;7.80;96.80;;;;;;5035477;28;20039;-64
2023/02/14 06:46:27;;;;;;;32.65;12.57;;;7.80;96.30;;;;;;5033426;28;20109;-64
2023/02/14 06:48:53;;;;;;;26.17;9.90;;;7.80;96.20;;;;;;5037865;28;20113;-64
2023/02/14 06:51:19;;;;;;;31.90;12.55;;;7.80;96.30;;;;;;5037735;28;20668;-64
2023/02/14 06:53:45;;;;;;;19.98;10.20;;;7.70;96.40;;;;;;5034215;28;20037;-64
2023/02/14 06:56:10;;;;;;;27.58;11.68;;;7.70;96.50;;;;;;5038282;28;20559;-63
2023/02/14 06:58:37;;;;;;;25.20;11.35;;;7.80;96.30;;;;;;5032439;28;20025;-64
2023/02/14 07:01:03;;;;;;;24.77;10.05;;;7.80;96.50;;;;;;5034886;28;20467;-64
2023/02/14 07:03:29;;;;;;;25.90;11.23;;;7.80;96.50;;;;;;5036339;28;20036;-64
2023/02/14 07:05:56;;;;;;;29.10;12.70;;;7.80;96.40;;;;;;5032760;28;20033;-64
2023/02/14 07:08:22;;;;;;;25.58;11.13;;;7.80;96.40;;;;;;5036663;28;20120;-63
2023/02/14 07:10:48;;;;;;;33.25;13.18;;;7.80;96.40;;;;;;5035751;28;20029;-64
2023/02/14 07:13:13;;;;;;;30.67;11.05;;;7.90;96.30;;;;;;5035950;28;20025;-63
2023/02/14 07:15:39;;;;;;;26.95;12.95;;;7.90;96.20;;;;;;5034297;28;20084;-64
2023/02/14 07:18:07;;;;;;;32.60;11.48;;;7.90;96.20;;;;;;5037794;28;20110;-64
2023/02/14 07:20:33;;;;;;;27.95;12.02;;;7.90;96.00;;;;;;5040314;28;20797;-64
2023/02/14 07:22:59;;;;;;;24.00;10.95;;;7.90;96.10;;;;;;5033859;28;20032;-64
2023/02/14 07:25:27;;;;;;;29.80;13.73;;;7.90;96.20;;;;;;5041076;28;20048;-64
2023/02/14 07:27:52;;;;;;;28.60;12.07;;;7.90;96.10;;;;;;5036334;28;20087;-64
2023/02/14 07:30:18;;;;;;;25.10;11.68;;;7.90;95.90;;;;;;5034226;28;20034;-64
2023/02/14 07:32:44;;;;;;;24.48;10.68;;;8.00;96.10;;;;;;5038730;28;20464;-64
2023/02/14 07:35:10;;;;;;;26.80;11.27;;;8.00;96.10;;;;;;5038851;28;20032;-64
2023/02/14 07:37:36;;;;;;;26.80;11.68;;;8.00;96.00;;;;;;5033969;28;20029;-64
2023/02/14 07:40:04;;;;;;;27.00;11.65;;;8.10;95.80;;;;;;5039431;28;20744;-64
2023/02/14 07:42:29;;;;;;;30.83;13.30;;;8.10;95.60;;;;;;5034812;28;20557;-64
2023/02/14 07:44:55;;;;;;;31.17;11.85;;;8.10;95.50;;;;;;5036626;28;20033;-64
2023/02/14 07:47:21;;;;;;;23.50;11.45;;;8.20;95.00;;;;;;5022352;28;20782;-64
2023/02/14 07:49:47;;;;;;;30.38;12.82;;;8.20;94.80;;;;;;5037926;28;20937;-64
2023/02/14 07:52:12;;;;;;;25.83;11.02;;;8.20;94.80;;;;;;5030403;28;20097;-64
2023/02/14 07:54:38;;;;;;;27.70;12.77;;;8.30;94.60;;;;;;5030338;28;20028;-64
2023/02/14 07:57:04;;;;;;;30.25;11.82;;;8.30;94.60;;;;;;5038283;28;20500;-64
2023/02/14 07:59:30;;;;;;;26.55;11.43;;;8.30;94.60;;;;;;5034488;28;20571;-64
2023/02/14 08:01:56;;;;;;;27.42;12.80;;;8.30;94.50;;;;;;5038439;28;20033;-64
2023/02/14 08:04:24;;;;;;;24.13;11.27;;;8.40;94.50;;;;;;5037805;28;20036;-64
2023/02/14 08:06:51;;;;;;;25.33;10.98;;;8.40;94.60;;;;;;5040043;28;20029;-64
2023/02/14 08:09:23;;;;;;;26.73;12.43;;;8.50;94.60;;;;;;5034005;28;20026;-64
2023/02/14 08:14:38;;;;;;;29.55;10.57;;;8.50;94.60;;;;;;5035582;28;20075;-64
2023/02/14 08:17:06;;;;;;;31.88;11.85;;;8.60;94.30;;;;;;5038516;28;20040;-64
2023/02/14 08:19:32;;;;;;;24.20;10.98;;;8.60;94.30;;;;;;5033764;28;20500;-63
2023/02/14 08:21:58;;;;;;;30.45;12.48;;;8.70;94.30;;;;;;5033450;28;20029;-64
2023/02/14 08:24:24;;;;;;;24.83;10.85;;;8.70;94.40;;;;;;5029621;28;20110;-63
2023/02/14 08:26:50;;;;;;;23.60;10.18;;;8.80;94.40;;;;;;5033217;28;20783;-63
2023/02/14 08:29:16;;;;;;;28.30;12.57;;;8.80;94.20;;;;;;5026109;28;20032;-63
2023/02/14 08:31:42;;;;;;;23.83;11.63;;;8.80;94.20;;;;;;5031123;28;20029;-63
2023/02/14 08:34:08;;;;;;;25.13;10.65;;;8.80;94.20;;;;;;5029525;28;20029;-63
2023/02/14 08:36:34;;;;;;;29.02;12.60;;;8.80;94.10;;;;;;5034792;28;20742;-63
2023/02/14 08:39:00;;;;;;;32.80;13.25;;;8.90;94.00;;;;;;5032518;28;20495;-63
2023/02/14 08:41:26;;;;;;;24.60;11.63;;;8.90;93.70;;;;;;5036211;28;20029;-63
2023/02/14 08:43:52;;;;;;;24.98;11.25;;;8.90;93.60;;;;;;5030263;28;20029;-63
2023/02/14 08:46:18;;;;;;;24.08;11.88;;;9.00;93.40;;;;;;5033437;28;20029;-63
2023/02/14 08:48:43;;;;;;;24.30;11.23;;;9.00;93.40;;;;;;5032557;28;20058;-63
2023/02/14 08:51:11;;;;;;;26.00;11.75;;;9.10;93.40;;;;;;5031000;28;20397;-63
2023/02/14 08:53:38;;;;;;;29.75;12.40;;;9.10;92.90;;;;;;5032462;28;20025;-63
2023/02/14 08:56:07;;;;;;;26.58;11.80;;;9.10;93.00;;;;;;5030246;28;20040;-63
2023/02/14 08:58:34;;;;;;;28.02;11.95;;;9.10;92.80;;;;;;5028783;28;20359;-63
2023/02/14 09:01:01;;;;;;;24.15;12.13;;;9.20;92.70;;;;;;5033394;28;20029;-63
2023/02/14 09:03:27;;;;;;;19.83;10.50;;;9.20;92.10;;;;;;5035421;28;20171;-63
2023/02/14 09:05:53;;;;;;;25.85;11.18;;;9.20;91.40;;;;;;5033864;28;20033;-63
2023/02/14 09:08:18;;;;;;;20.83;10.18;;;9.20;91.30;;;;;;5032093;28;20041;-63
2023/02/14 09:10:44;;;;;;;26.02;11.50;;;9.20;91.40;;;;;;5032760;28;20044;-63
2023/02/14 09:13:10;;;;;;;24.45;11.43;;;9.30;91.40;;;;;;5034134;28;20063;-63
2023/02/14 09:15:36;;;;;;;19.83;9.60;;;9.30;91.50;;;;;;5030449;28;20524;-63
2023/02/14 09:18:01;;;;;;;21.60;10.05;;;9.30;91.40;;;;;;5034541;28;20041;-63
2023/02/14 09:20:28;;;;;;;22.98;10.38;;;9.30;90.50;;;;;;5028976;28;20033;-63
2023/02/14 09:22:56;;;;;;;21.30;9.88;;;9.40;90.60;;;;;;5030688;28;20032;-63
2023/02/14 09:25:22;;;;;;;17.92;9.70;;;9.40;90.40;;;;;;5028836;28;20053;-63
2023/02/14 09:27:48;;;;;;;18.25;9.40;;;9.40;90.40;;;;;;5028423;28;20124;-63
2023/02/14 09:30:14;;;;;;;20.42;10.45;;;9.50;90.40;;;;;;5026949;28;20112;-66
2023/02/14 09:32:40;;;;;;;17.60;9.27;;;9.60;90.20;;;;;;5030744;28;20682;-66
2023/02/14 09:35:06;;;;;;;20.10;9.50;;;9.60;89.40;;;;;;5029330;28;20031;-66
2023/02/14 09:40:18;;;;;;;20.88;9.75;;;9.70;89.70;;;;;;5030835;28;20138;-66
2023/02/14 09:43:08;;;;;;;20.55;10.27;;;9.70;89.10;;;;;;5031483;28;20067;-66
2023/02/14 09:45:35;;;;;;;20.00;10.48;;;9.70;89.30;;;;;;5023576;28;20111;-66
2023/02/14 09:48:22;;;;;;;19.25;10.07;;;9.70;89.30;;;;;;5029409;28;20861;-66
2023/02/14 09:50:49;;;;;;;20.38;9.48;;;9.70;88.90;;;;;;5027172;28;20255;-66
2023/02/14 09:53:22;;;;;;;19.63;10.13;;;9.70;87.20;;;;;;5013203;28;20072;-66
2023/02/14 09:56:02;;;;;;;22.40;11.00;;;9.60;87.10;;;;;;5032478;28;20032;-66
2023/02/14 09:58:50;;;;;;;19.33;9.57;;;9.40;87.80;;;;;;5025874;28;20037;-66
2023/02/14 10:01:20;;;;;;;17.23;9.27;;;9.40;87.40;;;;;;5028324;28;20717;-66
2023/02/14 10:04:24;;;;;;;15.73;9.48;;;9.40;87.70;;;;;;5025442;28;20057;-66
2023/02/14 10:07:10;;;;;;;18.60;9.63;;;9.50;88.50;;;;;;5028454;28;20033;-66
2023/02/14 10:09:54;;;;;;;19.15;9.00;;;9.60;87.60;;;;;;5015147;28;20036;-66
2023/02/14 10:12:36;;;;;;;17.75;9.43;;;9.70;88.50;;;;;;5030996;28;20202;-66
2023/02/14 10:15:20;;;;;;;19.58;10.13;;;9.70;87.60;;;;;;5025649;28;20029;-66
2023/02/14 10:17:52;;;;;;;18.95;9.48;;;9.70;87.20;;;;;;5016356;28;20021;-66
2023/02/14 10:20:26;;;;;;;19.30;10.30;;;9.60;88.30;;;;;;5032688;28;20036;-66
2023/02/14 10:23:14;;;;;;;17.40;10.02;;;9.60;88.80;;;;;;5030323;28;20099;-65
2023/02/14 10:25:45;;;;;;;19.45;9.52;;;9.70;88.30;;;;;;5032983;28;20048;-65
2023/02/14 10:28:13;;;;;;;19.65;9.30;;;9.70;87.70;;;;;;5029851;28;20040;-66
2023/02/14 10:30:46;;;;;;;18.30;8.98;;;9.70;87.40;;;;;;5033966;28;20047;-66
2023/02/14 10:33:17;;;;;;;19.05;9.20;;;9.70;86.40;;;;;;5014964;28;20819;-66
2023/02/14 10:35:53;;;;;;;15.63;8.68;;;9.70;86.80;;;;;;5032008;28;20029;-65
2023/02/14 10:38:51;;;;;;;15.18;8.30;;;9.70;87.10;;;;;;5022655;28;20079;-65
2023/02/14 10:41:48;;;;;;;18.48;9.10;;;9.60;86.70;;;;;;4982888;28;20091;-65
2023/02/14 10:44:22;;;;;;;18.92;8.82;;;9.60;86.40;;;;;;5023227;28;20052;-66
2023/02/14 10:47:13;;;;;;;18.30;8.65;;;9.50;87.80;;;;;;5033150;28;20112;-65
2023/02/14 10:49:48;;;;;;;17.45;8.60;;;9.60;88.50;;;;;;5030822;28;20124;-69
2023/02/14 10:52:31;;;;;;;17.63;8.02;;;9.70;88.10;;;;;;5032451;28;20021;-69
2023/02/14 10:55:10;;;;;;;16.92;8.60;;;9.80;86.50;;;;;;5027524;28;20794;-70
2023/02/14 10:57:46;;;;;;;16.05;8.48;;;9.90;85.20;;;;;;5034122;28;20040;-72
2023/02/14 11:00:30;;;;;;;19.90;9.88;;;9.90;85.60;;;;;;5032978;28;20033;-66
2023/02/14 11:02:58;;;;;;;18.73;9.27;;;9.90;85.90;;;;;;5031581;28;20531;-65
2023/02/14 11:05:41;;;;;;;20.95;8.93;;;9.70;85.20;;;;;;5035203;28;20597;-65
2023/02/14 11:08:19;;;;;;;15.18;9.20;;;9.70;86.80;;;;;;5034397;28;20044;-65
2023/02/14 11:10:45;;;;;;;15.68;7.97;;;9.60;87.50;;;;;;5036220;28;20044;-65
2023/02/14 11:13:31;;;;;;;20.60;8.85;;;9.60;87.60;;;;;;5032046;28;20041;-65
2023/02/14 11:15:59;;;;;;;19.25;9.48;;;9.70;85.80;;;;;;5032093;28;20028;-65
2023/02/14 11:18:31;;;;;;;18.75;10.25;;;9.70;85.90;;;;;;5038498;28;20050;-65
2023/02/14 11:21:07;;;;;;;19.77;9.18;;;9.80;86.30;;;;;;5036127;28;20065;-65
2023/02/14 11:23:59;;;;;;;16.25;8.75;;;9.70;85.40;;;;;;5035476;28;20033;-64
2023/02/14 11:26:33;;;;;;;16.45;8.93;;;9.60;86.60;;;;;;5026879;28;20147;-65
2023/02/14 11:29:09;;;;;;;17.88;9.35;;;9.60;86.80;;;;;;5035020;28;20032;-65
2023/02/14 11:31:37;;;;;;;18.67;9.55;;;9.60;85.60;;;;;;5035219;28;20037;-65
2023/02/14 11:34:23;;;;;;;16.67;9.45;;;9.60;86.80;;;;;;5036922;28;20038;-65
2023/02/14 11:36:49;;;;;;;17.05;10.07;;;9.60;86.20;;;;;;5035584;28;20029;-65
2023/02/14 11:39:33;;;;;;;19.65;10.73;;;9.60;87.80;;;;;;5035210;28;20068;-65
2023/02/14 11:42:04;;;;;;;19.50;9.93;;;9.60;86.90;;;;;;5030870;28;20033;-65
2023/02/14 11:44:35;;;;;;;16.65;9.57;;;9.60;87.40;;;;;;5031520;28;20028;-65
2023/02/14 11:47:30;;;;;;;19.90;10.55;;;9.40;87.00;;;;;;5031616;28;20037;-65
2023/02/14 11:50:05;;;;;;;20.02;10.50;;;9.20;88.10;;;;;;5028273;28;20107;-66
2023/02/14 11:52:32;;;;;;;20.30;10.10;;;9.10;88.60;;;;;;5035018;28;20043;-65
2023/02/14 11:54:59;;;;;;;18.33;9.82;;;9.10;88.90;;;;;;5032640;28;20029;-65
2023/02/14 11:57:37;;;;;;;20.38;10.55;;;9.20;88.90;;;;;;5034124;28;20819;-66
2023/02/14 12:00:15;;;;;;;17.15;9.55;;;9.30;88.30;;;;;;5026413;28;20072;-66
2023/02/14 12:02:47;;;;;;;20.50;11.07;;;9.40;88.40;;;;;;5033074;28;20037;-65
2023/02/14 12:05:41;;;;;;;18.08;9.70;;;9.40;88.00;;;;;;5030337;28;20044;-65
2023/02/14 12:08:07;;;;;;;18.98;10.10;;;9.40;87.10;;;;;;5030967;28;20047;-65
2023/02/14 12:10:35;;;;;;;14.93;9.20;;;9.50;86.90;;;;;;5032444;28;20028;-65
2023/02/14 12:13:03;;;;;;;15.75;9.18;;;9.50;86.60;;;;;;5033931;28;20467;-65
2023/02/14 12:15:39;;;;;;;16.88;10.07;;;9.50;87.00;;;;;;5031256;28;20040;-65
2023/02/14 12:18:19;;;;;;;17.98;8.80;;;9.60;86.90;;;;;;5033791;28;20040;-65
2023/02/14 12:20:57;;;;;;;17.20;9.25;;;9.60;85.80;;;;;;5031674;28;20041;-65
2023/02/14 12:23:50;;;;;;;18.83;9.30;;;9.60;86.40;;;;;;5033094;28;20041;-65
2023/02/14 12:26:37;;;;;;;20.15;9.93;;;9.60;86.70;;;;;;5034547;28;20037;-65
2023/02/14 12:29:21;;;;;;;22.63;9.85;;;9.80;86.60;;;;;;5031985;28;20840;-65
2023/02/14 12:31:48;;;;;;;16.80;9.10;;;9.80;86.50;;;;;;5031660;28;20035;-65
2023/02/14 12:34:16;;;;;;;19.05;9.43;;;9.70;85.80;;;;;;5037002;28;20033;-65
2023/02/14 12:37:04;;;;;;;15.90;9.63;;;9.80;86.60;;;;;;5038997;28;20721;-65
2023/02/14 12:39:41;;;;;;;17.25;10.02;;;9.80;86.30;;;;;;5029440;28;20413;-65
2023/02/14 12:42:13;;;;;;;21.52;11.07;;;9.80;87.00;;;;;;5035546;28;20029;-65
2023/02/14 12:45:00;;;;;;;18.85;10.43;;;9.80;86.40;;;;;;5031444;28;20564;-65
2023/02/14 12:47:44;;;;;;;17.42;10.13;;;9.80;85.90;;;;;;5030554;28;20045;-65
2023/02/14 12:50:23;;;;;;;17.92;10.38;;;9.80;86.00;;;;;;5015258;28;20033;-65
2023/02/14 12:53:14;;;;;;;18.88;10.23;;;9.80;86.30;;;;;;5030513;28;20248;-65
2023/02/14 12:56:12;;;;;;;21.23;10.65;;;9.80;86.60;;;;;;5034421;28;20119;-65
2023/02/14 12:58:58;;;;;;;20.67;11.07;;;9.80;87.10;;;;;;5024335;28;20043;-65
2023/02/14 13:01:55;;;;;;;21.90;10.90;;;9.80;86.60;;;;;;5034826;28;20749;-65
2023/02/14 13:04:43;;;;;;;17.60;10.15;;;9.90;87.00;;;;;;5034565;28;20029;-65
2023/02/14 13:07:49;;;;;;;17.48;10.13;;;9.90;86.80;;;;;;5031640;28;20029;-65
2023/02/14 13:10:21;;;;;;;18.48;10.93;;;9.90;86.30;;;;;;4950598;28;20110;-65
2023/02/14 13:13:09;;;;;;;18.67;10.70;;;9.90;86.90;;;;;;5029358;28;20112;-65
2023/02/14 13:15:57;;;;;;;18.00;10.20;;;9.90;86.20;;;;;;5030945;28;20033;-65
2023/02/14 13:18:33;;;;;;;18.00;10.77;;;9.80;86.80;;;;;;5030300;28;20110;-65
2023/02/14 13:21:01;;;;;;;16.17;10.55;;;9.70;86.70;;;;;;5031293;28;20037;-65